createdAt,value
2022-10-24T00:00:43.962Z,12.04
2022-10-24T00:05:48.267Z,12.16
2022-10-24T00:10:50.646Z,12.16
2022-10-24T00:15:53.687Z,12.03
2022-10-24T00:20:56.171Z,12.08
2022-10-24T00:26:02.091Z,12.20
2022-10-24T00:31:06.747Z,12.14
2022-10-24T00:36:14.582Z,12.18
2022-10-24T00:41:18.713Z,12.28
2022-10-24T00:46:21.278Z,12.37
2022-10-24T00:51:29.408Z,12.18
2022-10-24T00:56:35.342Z,12.20
2022-10-24T01:01:38.467Z,12.26
2022-10-24T01:07:02.831Z,12.17
2022-10-24T01:12:10.893Z,12.27
2022-10-24T01:17:31.355Z,12.20
2022-10-24T01:22:58.636Z,12.27
2022-10-24T01:28:05.523Z,12.37
2022-10-24T01:33:17.445Z,12.40
2022-10-24T01:38:54.571Z,12.29
2022-10-24T01:44:03.223Z,12.31
2022-10-24T01:49:18.086Z,12.37
2022-10-24T01:54:20.986Z,12.39
2022-10-24T01:59:29.247Z,12.50
2022-10-24T02:04:33.503Z,12.53
2022-10-24T02:09:37.536Z,12.40
2022-10-24T02:15:08.804Z,12.42
2022-10-24T02:20:11.841Z,12.35
2022-10-24T02:25:19.943Z,12.22
2022-10-24T02:30:24.983Z,12.28
2022-10-24T02:35:29.843Z,12.21
2022-10-24T02:40:32.787Z,12.03
2022-10-24T02:45:35.627Z,12.04
2022-10-24T02:50:40.253Z,12.13
2022-10-24T02:55:43.105Z,12.32
2022-10-24T03:00:45.551Z,12.23
2022-10-24T03:05:47.870Z,12.35
2022-10-24T03:10:50.216Z,12.38
2022-10-24T03:15:52.547Z,12.29
2022-10-24T03:20:54.977Z,12.40
2022-10-24T03:25:58.034Z,12.39
2022-10-24T03:31:00.384Z,12.42
2022-10-24T03:36:02.906Z,12.43
2022-10-24T03:41:05.521Z,12.49
2022-10-24T03:46:07.986Z,12.31
2022-10-24T03:51:10.491Z,12.23
2022-10-24T03:56:13.184Z,12.64
2022-10-24T04:01:18.342Z,12.70
2022-10-24T04:06:20.719Z,12.73
2022-10-24T04:11:23.463Z,12.80
2022-10-24T04:16:25.841Z,12.71
2022-10-24T04:21:28.333Z,12.64
2022-10-24T04:26:30.766Z,12.55
2022-10-24T04:31:33.342Z,12.79
2022-10-24T04:36:35.789Z,12.90
2022-10-24T04:41:38.136Z,13.08
2022-10-24T04:46:40.491Z,13.02
2022-10-24T04:51:42.858Z,13.02
2022-10-24T04:56:45.200Z,13.00
2022-10-24T05:01:47.678Z,12.89
2022-10-24T05:06:50.156Z,13.06
2022-10-24T05:11:55.448Z,13.02
2022-10-24T05:16:57.747Z,12.90
2022-10-24T05:22:00.110Z,13.08
2022-10-24T05:27:02.483Z,12.85
2022-10-24T05:32:05.102Z,12.79
2022-10-24T05:37:07.537Z,12.73
2022-10-24T05:42:11.383Z,13.05
2022-10-24T05:47:13.827Z,13.51
2022-10-24T05:52:16.249Z,13.21
2022-10-24T05:57:18.723Z,13.18
2022-10-24T06:02:21.817Z,13.18
2022-10-24T06:07:24.469Z,13.34
2022-10-24T06:12:27.471Z,13.27
2022-10-24T06:17:29.877Z,13.35
2022-10-24T06:22:32.334Z,13.43
2022-10-24T06:27:34.618Z,13.31
2022-10-24T06:32:38.539Z,13.29
2022-10-24T06:37:47.142Z,13.30
2022-10-24T06:42:50.577Z,13.38
2022-10-24T06:47:54.265Z,13.37
2022-10-24T06:52:57.154Z,13.43
2022-10-24T06:57:59.487Z,13.57
2022-10-24T07:03:02.064Z,13.48
2022-10-24T07:08:04.792Z,13.52
2022-10-24T07:13:07.143Z,13.63
2022-10-24T07:18:14.796Z,13.62
2022-10-24T07:23:18.254Z,13.50
2022-10-24T07:28:20.660Z,13.65
2022-10-24T07:33:23.030Z,13.71
2022-10-24T07:38:25.546Z,13.71
2022-10-24T07:43:28.113Z,13.85
2022-10-24T07:48:30.395Z,13.82
2022-10-24T07:53:33.132Z,13.90
2022-10-24T07:58:36.166Z,13.93
2022-10-24T08:03:38.803Z,14.35
2022-10-24T08:08:41.603Z,14.32
2022-10-24T08:13:44.383Z,14.82
2022-10-24T08:18:46.714Z,15.11
2022-10-24T08:23:52.553Z,15.20
2022-10-24T08:28:55.772Z,14.92
2022-10-24T08:33:58.145Z,14.67
2022-10-24T08:39:01.058Z,14.68
2022-10-24T08:44:07.660Z,14.51
2022-10-24T08:49:18.497Z,14.54
2022-10-24T08:54:29.329Z,14.59
2022-10-24T08:59:34.217Z,14.74
2022-10-24T09:04:44.818Z,14.90
2022-10-24T09:09:51.180Z,15.16
2022-10-24T09:14:59.322Z,15.52
2022-10-24T09:20:25.811Z,15.58
2022-10-24T09:25:34.829Z,16.09
2022-10-24T09:30:37.913Z,16.27
2022-10-24T09:35:40.681Z,15.93
2022-10-24T09:40:51.203Z,16.34
2022-10-24T09:46:17.740Z,16.20
2022-10-24T09:51:25.233Z,16.24
2022-10-24T09:56:42.922Z,16.38
2022-10-24T10:01:45.727Z,16.26
2022-10-24T10:06:49.925Z,16.64
2022-10-24T10:12:03.223Z,16.46
2022-10-24T10:17:07.502Z,16.27
2022-10-24T10:22:28.120Z,16.36
2022-10-24T10:27:37.755Z,16.58
2022-10-24T10:33:08.692Z,16.56
2022-10-24T10:38:29.480Z,16.44
2022-10-24T10:43:55.169Z,16.41
2022-10-24T10:49:20.607Z,16.43
2022-10-24T10:54:31.809Z,16.60
2022-10-24T10:59:34.031Z,16.49
2022-10-24T11:04:46.664Z,16.46
2022-10-24T11:09:50.905Z,16.41
2022-10-24T11:15:05.517Z,16.39
2022-10-24T11:20:18.635Z,16.45
2022-10-24T11:25:24.013Z,16.55
2022-10-24T11:30:41.573Z,16.62
2022-10-24T11:36:00.092Z,16.61
2022-10-24T11:41:20.894Z,16.79
2022-10-24T11:46:27.347Z,16.82
2022-10-24T11:51:39.742Z,16.88
2022-10-24T11:56:59.452Z,16.79
2022-10-24T12:02:07.712Z,16.78
2022-10-24T12:07:46.991Z,16.79
2022-10-24T12:13:08.091Z,16.83
2022-10-24T12:18:23.759Z,16.99
2022-10-24T12:23:27.823Z,17.11
2022-10-24T12:28:30.194Z,17.09
2022-10-24T12:33:32.772Z,17.06
2022-10-24T12:38:35.145Z,16.97
2022-10-24T12:43:40.622Z,16.91
2022-10-24T12:48:44.070Z,17.00
2022-10-24T12:54:13.604Z,17.09
2022-10-24T12:59:35.063Z,17.08
2022-10-24T13:05:04.220Z,17.07
2022-10-24T13:10:39.322Z,17.11
2022-10-24T13:15:52.422Z,17.12
2022-10-24T13:21:15.406Z,17.15
2022-10-24T13:26:38.609Z,17.29
2022-10-24T13:31:44.126Z,17.31
2022-10-24T13:36:48.971Z,17.73
2022-10-24T13:41:58.207Z,17.85
2022-10-24T13:47:13.994Z,17.61
2022-10-24T13:52:20.971Z,17.55
2022-10-24T13:57:37.565Z,17.58
2022-10-24T14:02:42.942Z,17.67
2022-10-24T14:07:45.455Z,17.71
2022-10-24T14:12:52.009Z,17.79
2022-10-24T14:18:02.492Z,17.83
2022-10-24T14:23:29.427Z,18.21
2022-10-24T14:28:34.859Z,17.89
2022-10-24T14:33:48.129Z,17.83
2022-10-24T14:38:52.087Z,17.61
2022-10-24T14:43:54.631Z,17.41
2022-10-24T14:48:56.952Z,17.23
2022-10-24T14:53:59.659Z,16.89
2022-10-24T14:59:07.384Z,16.56
2022-10-24T15:04:32.311Z,16.30
2022-10-24T15:09:34.593Z,16.13
2022-10-24T15:14:36.814Z,15.89
2022-10-24T15:19:39.140Z,15.76
2022-10-24T15:24:44.267Z,15.72
2022-10-24T15:29:46.978Z,15.26
2022-10-24T15:34:49.497Z,15.20
2022-10-24T15:39:54.076Z,15.39
2022-10-24T15:44:56.400Z,15.54
2022-10-24T15:49:58.731Z,15.48
2022-10-24T15:55:01.142Z,15.53
2022-10-24T16:00:04.600Z,15.50
2022-10-24T16:05:28.931Z,15.55
2022-10-24T16:10:31.314Z,15.58
2022-10-24T16:15:36.390Z,15.71
2022-10-24T16:20:38.863Z,15.82
2022-10-24T16:25:41.362Z,15.82
2022-10-24T16:30:43.943Z,15.87
2022-10-24T16:35:48.121Z,15.94
2022-10-24T16:40:50.558Z,15.92
2022-10-24T16:46:03.315Z,16.00
2022-10-24T16:51:13.221Z,15.94
2022-10-24T16:56:15.796Z,15.94
2022-10-24T17:01:18.449Z,15.98
2022-10-24T17:06:22.235Z,16.01
2022-10-24T17:11:45.222Z,16.07
2022-10-24T17:16:47.013Z,16.03
2022-10-24T17:21:51.594Z,16.02
2022-10-24T17:26:54.444Z,15.98
2022-10-24T17:31:57.519Z,16.03
2022-10-24T17:37:37.374Z,16.12
2022-10-24T17:42:40.904Z,16.05
2022-10-24T17:47:43.879Z,16.10
2022-10-24T17:52:51.043Z,16.17
2022-10-24T17:57:53.804Z,16.26
2022-10-24T18:02:56.148Z,16.28
2022-10-24T18:07:58.555Z,16.44
2022-10-24T18:13:02.007Z,16.52
2022-10-24T18:18:05.447Z,16.45
2022-10-24T18:23:07.788Z,16.45
2022-10-24T18:28:10.058Z,16.56
2022-10-24T18:33:12.449Z,16.49
2022-10-24T18:38:18.799Z,16.51
2022-10-24T18:43:21.510Z,16.54
2022-10-24T18:48:24.226Z,16.58
2022-10-24T18:53:28.011Z,16.68
2022-10-24T18:58:30.509Z,16.83
2022-10-24T19:03:37.032Z,17.01
2022-10-24T19:08:39.527Z,17.05
2022-10-24T19:13:43.177Z,17.12
2022-10-24T19:18:50.201Z,17.28
2022-10-24T19:23:52.892Z,17.30
2022-10-24T19:28:55.569Z,17.28
2022-10-24T19:33:57.899Z,17.25
2022-10-24T19:39:00.645Z,17.36
2022-10-24T19:44:03.933Z,17.44
2022-10-24T19:49:06.286Z,17.50
2022-10-24T19:54:08.670Z,17.48
2022-10-24T19:59:12.404Z,17.35
2022-10-24T20:04:14.848Z,17.34
2022-10-24T20:09:17.237Z,17.38
2022-10-24T20:14:19.933Z,17.08
2022-10-24T20:19:22.334Z,16.93
2022-10-24T20:24:24.751Z,16.58
2022-10-24T20:29:27.182Z,16.86
2022-10-24T20:34:29.479Z,16.84
2022-10-24T20:39:31.819Z,16.85
2022-10-24T20:44:34.134Z,16.92
2022-10-24T20:49:36.434Z,16.83
2022-10-24T20:54:38.805Z,16.63
2022-10-24T20:59:41.166Z,16.72
2022-10-24T21:04:43.849Z,16.73
2022-10-24T21:09:46.114Z,16.66
2022-10-24T21:14:48.400Z,16.72
2022-10-24T21:19:51.686Z,16.81
2022-10-24T21:24:53.980Z,16.76
2022-10-24T21:29:56.362Z,16.70
2022-10-24T21:34:58.731Z,16.61
2022-10-24T21:40:01.121Z,16.42
2022-10-24T21:45:03.834Z,16.49
2022-10-24T21:50:06.463Z,16.45
2022-10-24T21:55:09.114Z,16.30
2022-10-24T22:00:12.224Z,16.24
2022-10-24T22:05:14.930Z,16.18
2022-10-24T22:10:17.406Z,16.15
2022-10-24T22:15:19.740Z,16.07
2022-10-24T22:20:22.031Z,16.10
2022-10-24T22:25:24.376Z,16.09
2022-10-24T22:30:26.765Z,16.21
2022-10-24T22:35:29.556Z,16.29
2022-10-24T22:40:32.633Z,16.22
2022-10-24T22:45:35.237Z,16.14
2022-10-24T22:50:46.555Z,16.22
2022-10-24T22:55:51.520Z,16.15
2022-10-24T23:01:02.670Z,16.17
2022-10-24T23:06:14.349Z,16.07
2022-10-24T23:11:16.882Z,16.08
2022-10-24T23:16:31.164Z,16.08
2022-10-24T23:21:41.865Z,16.02
2022-10-24T23:27:11.991Z,16.04
2022-10-24T23:32:22.402Z,15.92
2022-10-24T23:37:51.235Z,15.88
2022-10-24T23:42:53.927Z,15.93
2022-10-24T23:48:20.402Z,15.83
2022-10-24T23:53:50.287Z,15.92
2022-10-24T23:58:53.073Z,15.89
